Time;durP1;ratioP1;P1;durP2;ratioP2;P2;SDS_P1;SDS_P2;PMS_P1;PMS_P2;Temp;Humidity;BMP_temperature;BMP_pressure;BME280_temperature;BME280_humidity;BME280_pressure;Samples;Min_cycle;Max_cycle;Signal;HPM_P1;HPM_P2
2023/03/11 00:02:09;;;;;;;4.40;0.30;;;0.60;99.90;;;;;;5006680;28;20140;-49
2023/03/11 00:04:35;;;;;;;2.95;0.50;;;0.60;99.90;;;;;;5002616;28;20057;-46
2023/03/11 00:07:00;;;;;;;3.83;0.40;;;0.60;99.90;;;;;;5003532;28;20050;-44
2023/03/11 00:09:26;;;;;;;3.35;0.43;;;0.60;99.90;;;;;;5001262;28;20137;-46
2023/03/11 00:11:52;;;;;;;3.38;0.85;;;0.60;99.90;;;;;;5009170;28;20057;-44
2023/03/11 00:14:17;;;;;;;4.85;0.40;;;0.60;99.90;;;;;;5000627;28;20397;-45
2023/03/11 00:16:43;;;;;;;1.52;0.32;;;0.60;99.90;;;;;;5006691;28;20129;-46
2023/03/11 00:19:09;;;;;;;4.10;0.52;;;0.60;99.90;;;;;;5004625;28;20120;-36
2023/03/11 00:21:35;;;;;;;3.67;0.52;;;0.70;99.90;;;;;;5007568;28;20060;-36
2023/03/11 00:24:02;;;;;;;5.25;1.05;;;0.70;99.90;;;;;;5004314;28;20041;-37
2023/03/11 00:26:28;;;;;;;8.98;0.70;;;0.70;99.90;;;;;;5004957;28;20046;-37
2023/03/11 00:28:54;;;;;;;2.25;0.20;;;0.70;99.90;;;;;;5008047;28;20145;-37
2023/03/11 00:31:21;;;;;;;7.70;0.40;;;0.70;99.90;;;;;;5004027;28;20053;-37
2023/03/11 00:33:47;;;;;;;3.63;0.30;;;0.70;99.90;;;;;;5003608;28;20054;-37
2023/03/11 00:36:27;;;;;;;3.25;0.43;;;0.70;99.90;;;;;;5004582;28;20050;-37
2023/03/11 00:38:53;;;;;;;2.55;0.63;;;0.70;99.90;;;;;;5003868;28;20050;-37
2023/03/11 00:41:19;;;;;;;3.15;0.30;;;0.60;99.90;;;;;;5007026;28;20132;-37
2023/03/11 00:43:45;;;;;;;4.32;0.65;;;0.60;99.90;;;;;;4998482;28;20208;-36
2023/03/11 00:46:11;;;;;;;3.80;0.50;;;0.60;99.90;;;;;;5010089;28;20056;-37
2023/03/11 00:48:37;;;;;;;5.57;0.85;;;0.60;99.90;;;;;;5006579;28;20049;-37
2023/03/11 00:51:03;;;;;;;5.97;0.47;;;0.50;99.90;;;;;;5002963;28;20073;-37
2023/03/11 00:53:28;;;;;;;3.03;0.57;;;0.50;99.90;;;;;;5000745;28;20054;-38
2023/03/11 00:55:54;;;;;;;5.40;0.50;;;0.50;99.90;;;;;;5004790;28;20073;-37
2023/03/11 00:58:26;;;;;;;4.90;0.50;;;0.50;99.90;;;;;;5011694;28;20193;-37
2023/03/11 01:00:51;;;;;;;3.05;0.47;;;0.50;99.90;;;;;;5001159;28;20065;-37
2023/03/11 01:03:17;;;;;;;3.38;0.50;;;0.50;99.90;;;;;;5000337;28;20046;-38
2023/03/11 01:05:43;;;;;;;4.78;0.68;;;0.50;99.90;;;;;;4994169;28;20050;-36
2023/03/11 01:08:08;;;;;;;6.15;0.45;;;0.50;99.90;;;;;;4999630;28;20420;-36
2023/03/11 01:10:36;;;;;;;3.50;0.30;;;0.50;99.90;;;;;;4994175;28;21650;-36
2023/03/11 01:13:03;;;;;;;3.50;0.65;;;0.50;99.90;;;;;;4998363;28;20050;-46
2023/03/11 01:15:33;;;;;;;1.77;0.30;;;0.50;99.90;;;;;;4998499;28;20073;-47
2023/03/11 01:17:59;;;;;;;3.10;0.40;;;0.40;99.90;;;;;;4997947;28;20063;-45
2023/03/11 01:20:25;;;;;;;5.25;0.40;;;0.40;99.90;;;;;;5000767;28;20522;-45
2023/03/11 01:22:50;;;;;;;3.20;0.52;;;0.30;99.90;;;;;;4997651;28;20058;-45
2023/03/11 01:25:19;;;;;;;3.45;0.50;;;0.30;99.90;;;;;;5014036;28;20050;-49
2023/03/11 01:27:45;;;;;;;3.55;0.40;;;0.30;99.90;;;;;;4999532;28;20111;-44
2023/03/11 01:30:16;;;;;;;1.60;0.30;;;0.30;99.90;;;;;;5006415;28;20054;-43
2023/03/11 01:32:42;;;;;;;4.93;0.52;;;0.30;99.90;;;;;;5006280;28;20042;-44
2023/03/11 01:35:11;;;;;;;3.25;0.60;;;0.30;99.90;;;;;;5003762;28;20407;-45
2023/03/11 01:37:37;;;;;;;3.67;1.13;;;0.40;99.90;;;;;;4996795;28;20081;-44
2023/03/11 01:40:03;;;;;;;3.35;0.45;;;0.40;99.90;;;;;;5007458;28;20084;-46
2023/03/11 01:42:29;;;;;;;3.60;0.22;;;0.40;99.90;;;;;;5006062;28;20124;-46
2023/03/11 01:44:55;;;;;;;3.05;0.45;;;0.30;99.90;;;;;;4998504;28;20496;-46
2023/03/11 01:47:39;;;;;;;4.63;0.57;;;0.30;99.90;;;;;;5001624;28;20591;-45
2023/03/11 01:50:09;;;;;;;2.17;0.38;;;0.20;99.90;;;;;;4990164;28;20137;-45
2023/03/11 01:52:35;;;;;;;3.08;0.30;;;0.20;99.90;;;;;;5002458;28;20480;-44
2023/03/11 01:55:01;;;;;;;3.83;0.47;;;0.10;99.90;;;;;;5014236;28;20069;-44
2023/03/11 01:57:27;;;;;;;1.88;0.60;;;0.10;99.90;;;;;;5004269;28;20657;-46
2023/03/11 01:59:57;;;;;;;4.13;0.40;;;0.00;99.90;;;;;;5001228;28;20112;-45
2023/03/11 02:02:31;;;;;;;1.40;0.30;;;0.10;99.90;;;;;;5000753;28;20049;-46
2023/03/11 02:05:00;;;;;;;0.90;0.30;;;0.00;99.90;;;;;;5003432;28;20068;-44
2023/03/11 02:07:25;;;;;;;3.22;0.50;;;0.10;99.90;;;;;;5003282;28;20045;-47
2023/03/11 02:09:51;;;;;;;4.63;0.40;;;0.10;99.90;;;;;;5002592;28;20060;-44
2023/03/11 02:12:17;;;;;;;2.10;0.45;;;0.10;99.90;;;;;;4998612;28;20042;-44
2023/03/11 02:14:47;;;;;;;1.92;0.20;;;0.10;99.90;;;;;;4999426;28;20478;-40
2023/03/11 02:17:14;;;;;;;4.97;0.55;;;0.20;99.90;;;;;;5000468;28;20424;-42
2023/03/11 02:20:05;;;;;;;2.95;0.50;;;0.20;99.90;;;;;;5003695;28;20046;-43
2023/03/11 02:22:32;;;;;;;2.20;0.30;;;0.20;99.90;;;;;;4999157;28;20092;-45
2023/03/11 02:25:08;;;;;;;4.43;0.47;;;0.20;99.90;;;;;;5002925;28;20393;-44
2023/03/11 02:27:37;;;;;;;2.83;0.40;;;0.20;99.90;;;;;;5004575;28;20127;-43
2023/03/11 02:30:03;;;;;;;2.83;0.20;;;0.30;99.90;;;;;;5001706;28;20489;-44
2023/03/11 02:32:29;;;;;;;3.50;0.30;;;0.30;99.90;;;;;;5005021;28;20062;-46
2023/03/11 02:34:55;;;;;;;2.60;0.30;;;0.30;99.90;;;;;;5006503;28;20049;-43
2023/03/11 02:37:21;;;;;;;3.72;0.30;;;0.30;99.90;;;;;;5004597;28;20160;-47
2023/03/11 02:39:51;;;;;;;1.63;0.30;;;0.30;99.90;;;;;;5006227;28;20050;-46
2023/03/11 02:42:25;;;;;;;1.17;0.10;;;0.30;99.90;;;;;;5007108;28;20056;-49
2023/03/11 02:45:12;;;;;;;3.72;0.50;;;0.40;99.90;;;;;;5007082;28;20135;-50
2023/03/11 02:47:39;;;;;;;3.22;0.77;;;0.40;99.90;;;;;;5003627;28;20058;-46
2023/03/11 02:50:08;;;;;;;5.40;0.45;;;0.50;99.90;;;;;;5007893;28;20056;-43
2023/03/11 02:52:35;;;;;;;1.55;0.20;;;0.50;99.90;;;;;;5006421;28;20148;-44
2023/03/11 02:55:02;;;;;;;3.03;0.20;;;0.50;99.90;;;;;;5001375;28;20084;-44
2023/03/11 02:57:28;;;;;;;2.10;0.30;;;0.50;99.90;;;;;;5007353;28;20081;-44
2023/03/11 02:59:53;;;;;;;3.30;0.40;;;0.50;99.90;;;;;;5012017;28;20096;-44
2023/03/11 03:02:19;;;;;;;4.63;0.22;;;0.40;99.90;;;;;;4999538;28;20053;-44
2023/03/11 03:04:45;;;;;;;2.80;0.20;;;0.40;99.90;;;;;;5004073;28;20544;-44
2023/03/11 03:07:10;;;;;;;2.38;0.32;;;0.30;99.90;;;;;;5023029;28;20046;-44
2023/03/11 03:09:37;;;;;;;0.63;0.20;;;0.20;99.90;;;;;;5009278;28;20537;-43
2023/03/11 03:12:03;;;;;;;1.35;0.22;;;0.20;99.90;;;;;;5006245;28;20144;-45
2023/03/11 03:14:29;;;;;;;2.13;0.20;;;0.20;99.90;;;;;;5004310;28;20107;-47
2023/03/11 03:16:55;;;;;;;2.90;0.30;;;0.10;99.90;;;;;;5001350;28;20050;-49
2023/03/11 03:19:20;;;;;;;2.40;0.43;;;0.10;99.90;;;;;;5001604;28;21514;-59
2023/03/11 03:21:46;;;;;;;4.65;0.20;;;0.10;99.90;;;;;;5006147;28;20065;-44
2023/03/11 03:24:12;;;;;;;2.25;0.40;;;0.10;99.90;;;;;;5003875;28;20054;-42
2023/03/11 03:26:37;;;;;;;2.47;0.20;;;0.10;99.90;;;;;;5018335;28;20132;-45
2023/03/11 03:29:04;;;;;;;0.73;0.10;;;0.00;99.90;;;;;;5006433;28;20512;-43
2023/03/11 03:31:29;;;;;;;1.67;0.30;;;0.00;99.90;;;;;;5002393;28;20065;-52
2023/03/11 03:33:55;;;;;;;1.95;0.30;;;-0.10;99.90;;;;;;4999959;28;20050;-44
2023/03/11 03:36:21;;;;;;;5.75;0.52;;;-0.10;99.90;;;;;;5000067;28;20315;-40
2023/03/11 03:38:47;;;;;;;0.90;0.13;;;-0.10;99.90;;;;;;4998874;28;20054;-40
2023/03/11 03:41:14;;;;;;;2.67;0.30;;;-0.10;99.90;;;;;;5001107;28;20045;-40
2023/03/11 03:43:40;;;;;;;4.95;0.40;;;-0.10;99.90;;;;;;5002377;28;20054;-42
2023/03/11 03:46:06;;;;;;;2.05;0.30;;;-0.20;99.90;;;;;;5003284;28;20057;-41
2023/03/11 03:48:32;;;;;;;1.83;0.20;;;-0.20;99.90;;;;;;5002116;28;20085;-41
2023/03/11 03:51:03;;;;;;;5.00;0.25;;;-0.20;99.90;;;;;;4999722;28;20065;-40
2023/03/11 03:53:29;;;;;;;2.92;0.17;;;-0.20;99.90;;;;;;4995930;28;20057;-40
2023/03/11 03:55:55;;;;;;;2.60;0.20;;;-0.30;99.90;;;;;;5004480;28;20061;-43
2023/03/11 03:58:20;;;;;;;2.10;0.10;;;-0.30;99.90;;;;;;5002353;28;21600;-49
2023/03/11 04:00:46;;;;;;;3.25;0.22;;;-0.40;99.90;;;;;;5003272;28;20049;-40
2023/03/11 04:03:12;;;;;;;2.58;0.22;;;-0.40;99.90;;;;;;5005409;28;20060;-41
2023/03/11 04:05:37;;;;;;;1.67;0.30;;;-0.40;99.90;;;;;;5004584;28;20499;-41
2023/03/11 04:08:03;;;;;;;1.27;0.20;;;-0.40;99.90;;;;;;5002884;28;20057;-40
2023/03/11 04:10:29;;;;;;;2.88;0.20;;;-0.40;99.90;;;;;;5005990;28;20054;-42
2023/03/11 04:12:55;;;;;;;1.75;0.22;;;-0.50;99.90;;;;;;5005425;28;20042;-41
2023/03/11 04:15:20;;;;;;;1.42;0.10;;;-0.40;99.90;;;;;;4998739;28;20135;-40
2023/03/11 04:17:46;;;;;;;2.15;0.30;;;-0.40;99.90;;;;;;5002856;28;20137;-40
2023/03/11 04:20:12;;;;;;;1.08;0.20;;;-0.40;99.90;;;;;;4997374;28;20050;-40
2023/03/11 04:22:37;;;;;;;2.55;0.40;;;-0.40;99.90;;;;;;5003994;28;20053;-40
2023/03/11 04:25:03;;;;;;;2.38;0.28;;;-0.40;99.90;;;;;;5005569;28;20530;-40
2023/03/11 04:27:29;;;;;;;5.22;0.38;;;-0.40;99.90;;;;;;5003423;28;20120;-39
2023/03/11 04:29:55;;;;;;;1.10;0.10;;;-0.40;99.90;;;;;;4988513;28;20050;-41
2023/03/11 04:32:21;;;;;;;1.02;0.20;;;-0.40;99.90;;;;;;5004557;28;20496;-41
2023/03/11 04:34:48;;;;;;;1.83;0.10;;;-0.40;99.90;;;;;;5002936;28;20049;-40
2023/03/11 04:37:13;;;;;;;1.48;0.20;;;-0.40;99.90;;;;;;5004964;28;20069;-41
2023/03/11 04:39:39;;;;;;;1.33;0.40;;;-0.40;99.90;;;;;;4999908;28;20125;-40
2023/03/11 04:42:05;;;;;;;0.93;0.20;;;-0.40;99.90;;;;;;5007704;28;20049;-40
2023/03/11 04:44:33;;;;;;;1.45;0.20;;;-0.40;99.90;;;;;;4996218;28;20116;-39
2023/03/11 04:46:59;;;;;;;2.50;0.30;;;-0.50;99.90;;;;;;5004671;28;20056;-40
2023/03/11 04:49:24;;;;;;;2.53;0.30;;;-0.50;99.90;;;;;;4999972;28;20045;-40
2023/03/11 04:51:50;;;;;;;1.08;0.20;;;-0.50;99.90;;;;;;5004744;28;20057;-40
2023/03/11 04:54:15;;;;;;;1.02;0.10;;;-0.50;99.90;;;;;;5003275;28;20057;-40
2023/03/11 04:56:41;;;;;;;2.90;0.30;;;-0.60;99.90;;;;;;5004637;28;20157;-40
2023/03/11 04:59:07;;;;;;;1.08;0.20;;;-0.60;99.90;;;;;;5001428;28;20064;-40
2023/03/11 05:01:32;;;;;;;1.65;0.20;;;-0.60;99.90;;;;;;5007750;28;20145;-41
2023/03/11 05:03:58;;;;;;;2.97;0.30;;;-0.70;99.90;;;;;;5003937;28;20092;-40
2023/03/11 05:06:24;;;;;;;4.70;0.30;;;-0.70;99.90;;;;;;5000858;28;20046;-42
2023/03/11 05:08:49;;;;;;;1.00;0.20;;;-0.80;99.90;;;;;;5005153;28;20061;-40
2023/03/11 05:11:15;;;;;;;1.55;0.20;;;-0.80;99.90;;;;;;5002894;28;20137;-41
2023/03/11 05:13:41;;;;;;;0.70;0.13;;;-0.90;99.90;;;;;;4998424;28;20610;-40
2023/03/11 05:16:06;;;;;;;0.63;0.40;;;-0.90;99.90;;;;;;5004566;28;20061;-40
2023/03/11 05:18:32;;;;;;;1.55;0.40;;;-0.90;99.90;;;;;;5003455;28;20072;-39
2023/03/11 05:20:58;;;;;;;4.38;0.10;;;-1.00;99.90;;;;;;5000289;28;20503;-40
2023/03/11 05:23:23;;;;;;;1.75;0.20;;;-1.10;99.90;;;;;;4999730;28;20136;-40
2023/03/11 05:25:49;;;;;;;2.35;0.63;;;-1.10;99.90;;;;;;4996837;28;20128;-40
2023/03/11 05:28:15;;;;;;;2.42;0.50;;;-1.10;99.90;;;;;;5004945;28;20053;-40
2023/03/11 05:30:40;;;;;;;2.75;0.22;;;-1.10;99.90;;;;;;5015909;28;20052;-39
2023/03/11 05:33:06;;;;;;;2.78;0.20;;;-1.10;99.90;;;;;;5002337;28;20057;-40
2023/03/11 05:35:32;;;;;;;0.40;0.10;;;-1.10;99.90;;;;;;4998486;28;20069;-39
2023/03/11 05:37:57;;;;;;;2.65;0.38;;;-1.10;99.90;;;;;;4998143;28;20050;-35
2023/03/11 05:40:23;;;;;;;5.15;1.10;;;-1.10;99.90;;;;;;4996281;28;20057;-36
2023/03/11 05:42:49;;;;;;;0.90;0.10;;;-1.20;99.90;;;;;;4998931;28;20045;-36
2023/03/11 05:45:14;;;;;;;6.13;0.28;;;-1.20;99.90;;;;;;4994996;28;20084;-35
2023/03/11 05:47:41;;;;;;;0.57;0.20;;;-1.20;99.90;;;;;;5000535;28;20050;-34
2023/03/11 05:50:08;;;;;;;2.92;0.20;;;-1.20;99.90;;;;;;5003883;28;20075;-35
2023/03/11 05:52:33;;;;;;;1.58;0.20;;;-1.30;99.90;;;;;;4999517;28;20071;-36
2023/03/11 05:54:59;;;;;;;2.45;0.65;;;-1.30;99.90;;;;;;4997781;28;20054;-34
2023/03/11 05:57:25;;;;;;;0.40;0.10;;;-1.30;99.90;;;;;;4996309;28;20129;-45
2023/03/11 05:59:51;;;;;;;1.17;0.17;;;-1.30;99.90;;;;;;5001990;28;20042;-43
2023/03/11 06:02:16;;;;;;;2.45;0.30;;;-1.30;99.90;;;;;;4998143;28;20109;-42
2023/03/11 06:04:42;;;;;;;0.30;0.10;;;-1.40;99.90;;;;;;5004495;28;20512;-47
2023/03/11 06:07:08;;;;;;;1.70;0.20;;;-1.40;99.90;;;;;;5000731;28;20050;-44
2023/03/11 06:09:37;;;;;;;0.80;0.15;;;-1.40;99.90;;;;;;5003653;28;20116;-42
2023/03/11 06:12:04;;;;;;;1.30;0.10;;;-1.40;99.90;;;;;;5001073;28;20065;-42
2023/03/11 06:14:31;;;;;;;4.45;0.30;;;-1.40;99.90;;;;;;5003659;28;20132;-47
2023/03/11 06:16:57;;;;;;;0.22;0.10;;;-1.30;99.90;;;;;;5002979;28;20491;-43
2023/03/11 06:19:24;;;;;;;0.75;0.10;;;-1.30;99.90;;;;;;5003290;28;20049;-49
2023/03/11 06:21:50;;;;;;;2.67;0.40;;;-1.40;99.90;;;;;;5001831;28;20127;-48
2023/03/11 06:24:16;;;;;;;1.35;0.20;;;-1.30;99.90;;;;;;5017754;28;20061;-36
2023/03/11 06:26:42;;;;;;;0.35;0.10;;;-1.30;99.90;;;;;;5003241;28;20045;-36
2023/03/11 06:29:12;;;;;;;0.30;0.10;;;-1.30;99.90;;;;;;4999537;28;20054;-36
2023/03/11 06:31:38;;;;;;;0.40;0.15;;;-1.30;99.90;;;;;;4999089;28;20492;-36
2023/03/11 06:34:05;;;;;;;2.57;0.30;;;-1.20;99.90;;;;;;5000645;28;20053;-42
2023/03/11 06:36:31;;;;;;;0.80;0.10;;;-1.20;99.90;;;;;;5003559;28;20266;-44
2023/03/11 06:38:57;;;;;;;2.35;0.10;;;-1.20;99.90;;;;;;4996990;28;20053;-42
2023/03/11 06:41:23;;;;;;;3.45;0.30;;;-1.10;99.90;;;;;;5002771;28;20050;-42
2023/03/11 06:43:49;;;;;;;1.95;0.82;;;-1.10;99.90;;;;;;4998134;28;20054;-48
2023/03/11 06:46:18;;;;;;;3.53;0.10;;;-1.00;99.90;;;;;;5003041;28;20056;-44
2023/03/11 06:48:50;;;;;;;2.60;0.17;;;-1.00;99.90;;;;;;4997631;28;20068;-43
2023/03/11 06:51:17;;;;;;;2.17;0.28;;;-1.00;99.90;;;;;;4999689;28;20111;-46
2023/03/11 06:53:42;;;;;;;0.55;0.17;;;-0.90;99.90;;;;;;4997452;28;20050;-39
2023/03/11 06:56:13;;;;;;;0.63;0.10;;;-0.90;99.90;;;;;;4998162;28;20233;-45
2023/03/11 06:58:40;;;;;;;1.45;0.52;;;-0.90;99.90;;;;;;4998012;28;20050;-46
2023/03/11 07:01:17;;;;;;;1.83;0.40;;;-0.90;99.90;;;;;;4996807;28;20058;-42
2023/03/11 07:03:45;;;;;;;0.40;0.10;;;-0.80;99.90;;;;;;4997959;28;20528;-42
2023/03/11 07:06:16;;;;;;;2.60;0.35;;;-0.80;99.90;;;;;;4999447;28;20484;-46
2023/03/11 07:08:42;;;;;;;0.30;0.10;;;-0.80;99.90;;;;;;5000547;28;20054;-41
2023/03/11 07:11:11;;;;;;;1.33;0.15;;;-0.70;99.90;;;;;;4998395;28;20068;-44
2023/03/11 07:13:36;;;;;;;1.65;0.68;;;-0.70;99.90;;;;;;4999618;28;20069;-43
2023/03/11 07:16:09;;;;;;;0.98;0.28;;;-0.60;99.90;;;;;;5002184;28;20982;-44
2023/03/11 07:18:35;;;;;;;2.25;0.20;;;-0.60;99.90;;;;;;4997117;28;20053;-43
2023/03/11 07:21:03;;;;;;;1.08;0.20;;;-0.50;99.90;;;;;;5000169;28;20051;-45
2023/03/11 07:23:29;;;;;;;1.60;0.30;;;-0.50;99.90;;;;;;5001591;28;20057;-45
2023/03/11 07:25:54;;;;;;;2.47;0.30;;;-0.40;99.90;;;;;;4994683;28;20064;-43
2023/03/11 07:28:22;;;;;;;1.50;0.20;;;-0.40;99.90;;;;;;5007424;28;21735;-46
2023/03/11 07:30:48;;;;;;;1.50;0.20;;;-0.30;99.90;;;;;;5005456;28;20057;-43
2023/03/11 07:33:14;;;;;;;1.05;0.20;;;-0.20;99.90;;;;;;5003501;28;20061;-44
2023/03/11 07:35:39;;;;;;;1.40;0.22;;;-0.10;99.90;;;;;;4998861;28;20065;-42
2023/03/11 07:38:05;;;;;;;0.88;0.20;;;-0.10;99.90;;;;;;4999888;28;20423;-47
2023/03/11 07:40:31;;;;;;;0.85;0.40;;;0.00;99.90;;;;;;5006880;28;20057;-44
2023/03/11 07:42:57;;;;;;;2.03;0.35;;;0.10;99.90;;;;;;5005851;28;20099;-45
2023/03/11 07:45:23;;;;;;;1.38;0.10;;;0.20;99.90;;;;;;5005569;28;20404;-44
2023/03/11 07:47:48;;;;;;;6.82;0.30;;;0.30;99.90;;;;;;5002572;28;20060;-46
2023/03/11 07:50:16;;;;;;;2.72;0.35;;;0.30;99.90;;;;;;5003619;28;20103;-44
2023/03/11 07:52:42;;;;;;;1.88;0.10;;;0.40;99.90;;;;;;4994917;28;20053;-42
2023/03/11 07:55:08;;;;;;;1.85;0.95;;;0.50;99.90;;;;;;4989045;28;20094;-44
2023/03/11 07:57:33;;;;;;;1.67;0.28;;;0.50;99.90;;;;;;4992993;28;20112;-42
2023/03/11 07:59:59;;;;;;;2.60;0.20;;;0.60;99.90;;;;;;4998744;28;20050;-42
2023/03/11 08:02:25;;;;;;;2.70;0.40;;;0.70;99.90;;;;;;5007959;28;20049;-47
2023/03/11 08:04:51;;;;;;;3.72;0.63;;;0.80;99.90;;;;;;5000677;28;20064;-45
2023/03/11 08:07:17;;;;;;;3.65;0.77;;;0.80;99.90;;;;;;5001602;28;20058;-43
2023/03/11 08:09:42;;;;;;;3.13;0.40;;;0.90;99.90;;;;;;5004312;28;20042;-41
2023/03/11 08:12:08;;;;;;;4.68;0.60;;;1.00;99.90;;;;;;5000917;28;20425;-44
2023/03/11 08:14:34;;;;;;;3.90;0.90;;;1.10;99.90;;;;;;5020698;28;20099;-43
2023/03/11 08:17:00;;;;;;;4.93;0.60;;;1.20;99.90;;;;;;5003254;28;20063;-43
2023/03/11 08:19:25;;;;;;;3.88;0.77;;;1.30;99.90;;;;;;5001902;28;20116;-49
2023/03/11 08:21:51;;;;;;;5.57;1.25;;;1.30;99.90;;;;;;4994662;28;20407;-47
2023/03/11 08:24:17;;;;;;;9.00;2.80;;;1.30;99.90;;;;;;5000886;28;20117;-43
2023/03/11 08:26:42;;;;;;;9.60;2.38;;;1.30;99.90;;;;;;5001383;28;20062;-44
2023/03/11 08:29:08;;;;;;;7.65;2.40;;;1.40;99.90;;;;;;5004892;28;20115;-43
2023/03/11 08:31:34;;;;;;;6.55;1.30;;;1.40;99.90;;;;;;5001486;28;20065;-45
2023/03/11 08:34:04;;;;;;;5.57;0.70;;;1.40;99.90;;;;;;5003479;28;20208;-42
2023/03/11 08:36:31;;;;;;;3.78;0.57;;;1.50;99.90;;;;;;5000864;28;20119;-41
2023/03/11 08:38:57;;;;;;;3.25;0.50;;;1.60;99.90;;;;;;5003023;28;20111;-44
2023/03/11 08:41:23;;;;;;;1.42;0.60;;;1.60;99.90;;;;;;4998173;28;20058;-42
2023/03/11 08:43:51;;;;;;;0.70;0.20;;;1.70;99.90;;;;;;4998646;28;20050;-42
2023/03/11 08:46:32;;;;;;;1.35;0.30;;;1.80;99.90;;;;;;4995263;28;21059;-50
2023/03/11 08:48:59;;;;;;;5.15;0.80;;;1.80;99.90;;;;;;5000493;28;20073;-45
2023/03/11 08:51:25;;;;;;;3.72;0.40;;;1.90;99.90;;;;;;5001474;28;20053;-44
2023/03/11 08:53:52;;;;;;;1.73;0.40;;;2.00;99.90;;;;;;5000952;28;20396;-43
2023/03/11 08:56:18;;;;;;;3.25;0.30;;;2.20;99.90;;;;;;5000046;28;20066;-42
2023/03/11 08:58:44;;;;;;;1.45;0.28;;;2.30;99.90;;;;;;5002868;28;20057;-41
2023/03/11 09:01:11;;;;;;;4.25;0.88;;;2.40;99.90;;;;;;4999745;28;20484;-41
2023/03/11 09:03:37;;;;;;;3.35;0.40;;;2.50;99.90;;;;;;4999265;28;20057;-40
2023/03/11 09:06:06;;;;;;;0.93;0.30;;;2.60;99.90;;;;;;4997336;28;20066;-41
2023/03/11 09:08:32;;;;;;;3.50;0.45;;;2.70;99.90;;;;;;5000256;28;20060;-39
2023/03/11 09:10:58;;;;;;;1.38;0.30;;;2.70;99.90;;;;;;4997652;28;20641;-40
2023/03/11 09:13:24;;;;;;;1.77;0.45;;;2.70;99.90;;;;;;4991624;28;20061;-40
2023/03/11 09:15:51;;;;;;;4.30;0.40;;;2.70;99.90;;;;;;5013018;28;20504;-40
2023/03/11 09:18:17;;;;;;;1.70;0.32;;;2.80;99.90;;;;;;5000261;28;20061;-39
2023/03/11 09:20:44;;;;;;;4.63;0.40;;;2.80;99.90;;;;;;5000496;28;20476;-35
2023/03/11 09:23:12;;;;;;;1.25;0.25;;;2.90;99.90;;;;;;5003239;28;20124;-35
2023/03/11 09:25:38;;;;;;;1.48;0.32;;;2.90;99.90;;;;;;5000806;28;20502;-35
2023/03/11 09:28:04;;;;;;;0.70;0.30;;;2.90;99.90;;;;;;5001658;28;20050;-35
2023/03/11 09:30:30;;;;;;;1.50;0.40;;;3.00;99.90;;;;;;5004656;28;20057;-44
2023/03/11 09:32:56;;;;;;;3.17;0.32;;;3.00;99.90;;;;;;4997351;28;20053;-35
2023/03/11 09:35:22;;;;;;;5.03;0.55;;;3.10;99.90;;;;;;4998117;28;20118;-36
2023/03/11 09:37:47;;;;;;;2.25;0.50;;;3.20;99.90;;;;;;5004030;28;20042;-36
2023/03/11 09:40:18;;;;;;;8.88;0.82;;;3.30;99.90;;;;;;5000393;28;20046;-35
2023/03/11 09:43:02;;;;;;;1.45;0.40;;;3.40;99.90;;;;;;5001109;28;20061;-38
2023/03/11 09:45:30;;;;;;;3.00;0.30;;;3.50;99.90;;;;;;4999788;28;20541;-36
2023/03/11 09:47:59;;;;;;;4.28;0.40;;;3.60;99.90;;;;;;4999634;28;20145;-35
2023/03/11 09:50:40;;;;;;;6.15;0.40;;;3.70;99.90;;;;;;5000876;28;20085;-36
2023/03/11 09:53:21;;;;;;;3.85;1.38;;;3.70;99.90;;;;;;5003938;28;20061;-36
2023/03/11 09:56:13;;;;;;;3.50;0.43;;;3.80;99.90;;;;;;5001862;28;20060;-42
2023/03/11 09:58:51;;;;;;;4.45;0.30;;;3.80;99.90;;;;;;4998785;28;20049;-36
2023/03/11 10:01:25;;;;;;;1.58;0.45;;;3.90;99.90;;;;;;5000489;28;20072;-36
2023/03/11 10:03:54;;;;;;;6.88;0.40;;;4.00;99.90;;;;;;5002947;28;20519;-35
2023/03/11 10:06:23;;;;;;;2.42;0.30;;;4.10;99.90;;;;;;4997493;28;20088;-36
2023/03/11 10:09:11;;;;;;;3.55;0.40;;;4.20;99.90;;;;;;4997578;28;20086;-36
2023/03/11 10:12:02;;;;;;;4.28;0.93;;;4.30;99.90;;;;;;5003822;28;20054;-36
2023/03/11 10:14:55;;;;;;;3.72;0.65;;;4.40;99.90;;;;;;5003851;28;20046;-36
2023/03/11 10:17:33;;;;;;;;;;;4.50;99.90;;;;;;5003906;28;20492;-44
2023/03/11 10:20:03;;;;;;;2.40;0.20;;;4.50;99.90;;;;;;5003703;28;20012;-47
2023/03/11 10:23:01;;;;;;;1.33;0.60;;;4.60;99.90;;;;;;5000592;28;20058;-36
2023/03/11 10:25:54;;;;;;;1.83;0.30;;;4.60;99.90;;;;;;5005634;28;20069;-36
2023/03/11 10:28:24;;;;;;;3.90;1.08;;;4.70;99.90;;;;;;5001911;28;20058;-36
2023/03/11 10:31:17;;;;;;;2.10;0.35;;;4.80;99.90;;;;;;5001744;28;20056;-36
2023/03/11 10:33:46;;;;;;;;;;;4.80;99.90;;;;;;4999229;28;20053;-36
2023/03/11 10:36:17;;;;;;;1.35;0.40;;;4.90;99.90;;;;;;4997931;28;20323;-36
2023/03/11 10:38:48;;;;;;;1.75;0.52;;;5.00;99.90;;;;;;5002081;28;20388;-37
2023/03/11 10:41:16;;;;;;;3.03;0.38;;;5.00;99.90;;;;;;5002250;28;20046;-36
2023/03/11 10:43:59;;;;;;;3.72;0.32;;;5.10;99.90;;;;;;5002768;28;20073;-36
2023/03/11 10:46:26;;;;;;;;;;;5.10;99.90;;;;;;5000345;28;20119;-36
2023/03/11 10:48:52;;;;;;;2.72;0.30;;;5.10;99.90;;;;;;5004180;28;20402;-37
2023/03/11 10:51:25;;;;;;;4.88;0.30;;;5.30;99.90;;;;;;5002648;28;20068;-37
2023/03/11 10:53:56;;;;;;;2.42;0.30;;;5.30;99.90;;;;;;4996329;28;20056;-38
2023/03/11 10:56:30;;;;;;;2.40;0.28;;;5.40;99.90;;;;;;5005449;28;20423;-37
2023/03/11 10:58:57;;;;;;;3.78;0.15;;;5.50;99.90;;;;;;5006560;28;20496;-37
2023/03/11 11:01:23;;;;;;;2.85;0.30;;;5.50;99.90;;;;;;5002543;28;20079;-37
2023/03/11 11:03:54;;;;;;;2.03;0.32;;;5.50;99.90;;;;;;5012275;28;20077;-38
2023/03/11 11:06:34;;;;;;;1.55;0.85;;;5.50;99.90;;;;;;5002140;28;20140;-39
2023/03/11 11:09:18;;;;;;;3.67;0.20;;;5.50;99.10;;;;;;5005315;28;20058;-37
2023/03/11 11:12:10;;;;;;;3.60;0.25;;;5.50;99.10;;;;;;5005781;28;20053;-37
2023/03/11 11:14:48;;;;;;;4.38;0.30;;;5.50;97.10;;;;;;5006945;28;20145;-37
2023/03/11 11:17:25;;;;;;;2.13;0.50;;;5.70;98.80;;;;;;5003905;28;20066;-37
2023/03/11 11:19:53;;;;;;;0.60;0.30;;;5.70;96.50;;;;;;5004585;28;20042;-38
2023/03/11 11:22:21;;;;;;;3.25;0.60;;;5.70;96.30;;;;;;5000462;28;20049;-38
2023/03/11 11:24:50;;;;;;;4.15;0.65;;;5.70;96.80;;;;;;5008093;28;20053;-38
2023/03/11 11:27:25;;;;;;;3.00;0.60;;;5.80;96.00;;;;;;5004064;28;20522;-39
2023/03/11 11:30:13;;;;;;;4.72;0.88;;;5.90;98.00;;;;;;5005319;28;20046;-37
2023/03/11 11:32:39;;;;;;;2.63;0.30;;;6.00;96.50;;;;;;5008574;28;20479;-38
2023/03/11 11:35:16;;;;;;;2.90;0.50;;;6.10;96.60;;;;;;5004527;28;20053;-43
2023/03/11 11:38:03;;;;;;;1.20;0.32;;;6.20;95.20;;;;;;5004867;28;20096;-38
2023/03/11 11:40:32;;;;;;;2.90;0.20;;;6.40;95.70;;;;;;5006977;28;20058;-37
2023/03/11 11:43:05;;;;;;;5.55;1.25;;;6.40;95.00;;;;;;5000719;28;20062;-42
2023/03/11 11:45:44;;;;;;;3.33;0.95;;;6.40;95.80;;;;;;5007516;28;20492;-38
2023/03/11 11:48:25;;;;;;;3.92;0.77;;;6.40;94.20;;;;;;5004046;28;20060;-39
2023/03/11 11:50:54;;;;;;;1.95;0.43;;;6.30;93.40;;;;;;5005218;28;20056;-37
2023/03/11 11:53:50;;;;;;;3.10;0.85;;;6.30;93.70;;;;;;5005377;28;20053;-41
2023/03/11 12:12:54;;;;;;;1.17;0.20;;;7.00;91.60;;;;;;5260094;23;20503;-42
2023/03/11 12:15:27;;;;;;;0.88;0.20;;;7.10;91.80;;;;;;4966315;28;20053;-44
2023/03/11 12:18:00;;;;;;;2.22;0.38;;;7.10;89.90;;;;;;4968623;28;20038;-44
2023/03/11 12:20:40;;;;;;;1.65;0.30;;;7.20;90.00;;;;;;4964571;28;20050;-43
2023/03/11 12:23:16;;;;;;;1.80;0.30;;;7.40;86.10;;;;;;4956474;28;20562;-43
2023/03/11 12:26:14;;;;;;;2.63;0.20;;;7.80;87.10;;;;;;4978180;28;20575;-46
2023/03/11 12:29:03;;;;;;;3.58;0.35;;;8.10;82.30;;;;;;4968816;28;20054;-44
2023/03/11 12:31:37;;;;;;;2.67;0.30;;;8.10;80.40;;;;;;4978352;28;20519;-43
2023/03/11 12:34:06;;;;;;;0.20;0.10;;;8.50;82.80;;;;;;4971192;28;20054;-41
2023/03/11 12:36:38;;;;;;;0.80;0.10;;;8.80;73.00;;;;;;4968582;28;20063;-45
2023/03/11 12:39:23;;;;;;;1.15;0.20;;;9.10;71.30;;;;;;4970414;28;20058;-42
2023/03/11 12:42:09;;;;;;;0.60;0.10;;;9.40;75.30;;;;;;4974596;28;20133;-42
2023/03/11 12:44:35;;;;;;;2.47;0.10;;;9.80;72.10;;;;;;4976004;28;20186;-46
2023/03/11 12:47:21;;;;;;;0.57;0.08;;;9.90;70.90;;;;;;4968023;28;20049;-43
2023/03/11 12:49:56;;;;;;;1.10;0.20;;;10.10;68.20;;;;;;4966770;28;20055;-43
2023/03/11 12:52:26;;;;;;;2.95;0.13;;;10.10;65.60;;;;;;4972664;28;20403;-42
2023/03/11 12:54:58;;;;;;;0.98;0.15;;;10.20;62.40;;;;;;4968288;28;20060;-46
2023/03/11 12:57:35;;;;;;;7.23;0.50;;;10.50;64.70;;;;;;4962746;28;20393;-45
2023/03/11 13:00:22;;;;;;;3.13;0.47;;;10.70;61.50;;;;;;4958800;28;20051;-43
2023/03/11 13:03:19;;;;;;;2.35;0.10;;;10.90;61.20;;;;;;4964982;28;20046;-45
2023/03/11 13:06:15;;;;;;;0.40;0.13;;;11.00;60.20;;;;;;4964545;28;20067;-46
2023/03/11 13:08:56;;;;;;;2.35;0.20;;;11.10;60.20;;;;;;4959097;28;20419;-44
2023/03/11 13:11:31;;;;;;;2.75;0.15;;;11.00;58.70;;;;;;4960133;28;20133;-42
2023/03/11 13:14:27;;;;;;;0.95;0.20;;;11.10;59.40;;;;;;4960175;28;20535;-46
2023/03/11 13:16:54;;;;;;;0.95;0.10;;;11.20;56.70;;;;;;4953692;28;20508;-44
2023/03/11 13:19:26;;;;;;;0.75;0.15;;;11.50;60.70;;;;;;4961511;28;20038;-48
2023/03/11 13:21:53;;;;;;;2.03;0.13;;;11.70;52.30;;;;;;4958264;28;20787;-47